Flight Track Log - Related Links

Times and Time Zones

All times are in EDT time to prevent confusion due to time zone crossing. See the CCA1721 flight status page for this flight to view local times or setup timezone preferences in your user account.

Time Position Orientation Groundspeed Altitude Reporting Facility
EDT Latitude Longitude Course Direction KTS MPH feet Rate Location/Type
Wed 02:18:00 AM 29.9648 120.1317 225° Southwest  Level Estimated
Wed 02:19:00 AM 29.8988 120.0570 224° Southwest  Level Estimated
Wed 02:20:00 AM 29.8327 119.9824 224° Southwest  Level Estimated
Wed 02:21:00 AM 29.7666 119.9078 224° Southwest  Level Estimated
Wed 02:22:00 AM 29.7005 119.8334 224° Southwest  Level Estimated
Wed 02:23:00 AM 29.6343 119.7590 224° Southwest  Level Estimated
Wed 02:24:00 AM 29.5681 119.6848 224° Southwest  Level Estimated
Wed 02:25:00 AM 29.5019 119.6106 224° Southwest  Level Estimated
Wed 02:26:00 AM 29.4356 119.5366 224° Southwest  Level Estimated
Wed 02:27:00 AM 29.3692 119.4626 224° Southwest  Level Estimated
Wed 02:28:00 AM 29.3029 119.3888 224° Southwest  Level Estimated
Wed 02:29:00 AM 29.2365 119.3150 224° Southwest  Level Estimated
Wed 02:30:00 AM 29.1700 119.2413 224° Southwest  Level Estimated
Wed 02:31:00 AM 29.1035 119.1678 224° Southwest  Level Estimated
Wed 02:32:00 AM 29.0370 119.0943 224° Southwest  Level Estimated
Wed 02:33:00 AM 28.9704 119.0209 224° Southwest  Level Estimated
Wed 02:34:00 AM 28.9038 118.9476 224° Southwest  Level Estimated
Wed 02:35:00 AM 28.8371 118.8744 224° Southwest  Level Estimated
Wed 02:36:00 AM 28.7704 118.8013 224° Southwest  Level Estimated
Wed 02:37:00 AM 28.7037 118.7283 224° Southwest  Level Estimated
Wed 02:38:00 AM 28.6369 118.6554 224° Southwest  Level Estimated
Wed 02:39:00 AM 28.5701 118.5826 224° Southwest  Level Estimated
Wed 02:40:00 AM 28.5033 118.5099 224° Southwest  Level Estimated
Wed 02:41:00 AM 28.4364 118.4372 224° Southwest  Level Estimated
Wed 02:42:00 AM 28.3695 118.3647 224° Southwest  Level Estimated
Wed 02:43:00 AM 28.3025 118.2922 224° Southwest  Level Estimated
Wed 02:44:00 AM 28.2355 118.2199 224° Southwest  Level Estimated
Wed 02:45:00 AM 28.1684 118.1476 224° Southwest  Level Estimated
Wed 02:46:00 AM 28.1014 118.0754 224° Southwest  Level Estimated
Wed 02:47:00 AM 28.0343 118.0033 223° Southwest  Level Estimated
Wed 02:48:00 AM 27.9671 117.9313 223° Southwest  Level Estimated
Wed 02:49:00 AM 27.8999 117.8594 223° Southwest  Level Estimated
Wed 02:50:00 AM 27.8327 117.7876 223° Southwest  Level Estimated
Wed 02:51:00 AM 27.7654 117.7159 223° Southwest  Level Estimated
Wed 02:52:00 AM 27.6981 117.6442 223° Southwest  Level Estimated
Wed 02:53:00 AM 27.6308 117.5727 223° Southwest  Level Estimated
Wed 02:54:00 AM 27.5634 117.5012 223° Southwest  Level Estimated
Wed 02:55:00 AM 27.4960 117.4298 223° Southwest  Level Estimated
Wed 02:56:00 AM 27.4285 117.3586 223° Southwest  Level Estimated
Wed 02:57:00 AM 27.3610 117.2873 223° Southwest  Level Estimated
Wed 02:58:00 AM 27.2935 117.2162 223° Southwest  Level Estimated
Wed 02:59:00 AM 27.2260 117.1452 223° Southwest  Level Estimated
Wed 03:00:00 AM 27.1584 117.0742 223° Southwest  Level Estimated
Wed 03:01:00 AM 27.0907 117.0034 223° Southwest  Level Estimated
Wed 03:02:00 AM 27.0231 116.9326 223° Southwest  Level Estimated
Wed 03:03:00 AM 26.9554 116.8619 223° Southwest  Level Estimated
Wed 03:04:00 AM 26.8876 116.7913 223° Southwest  Level Estimated
Wed 03:05:00 AM 26.8199 116.7208 223° Southwest  Level Estimated
Wed 03:06:00 AM 26.7521 116.6504 223° Southwest  Level Estimated
Wed 03:07:00 AM 26.6842 116.5800 223° Southwest  Level Estimated
Wed 03:08:00 AM 26.6163 116.5098 223° Southwest  Level Estimated
Wed 03:09:00 AM 26.5484 116.4396 223° Southwest  Level Estimated
Wed 03:10:00 AM 26.4805 116.3695 223° Southwest  Level Estimated
Wed 03:11:00 AM 26.4125 116.2995 223° Southwest  Level Estimated
Wed 03:12:00 AM 26.3445 116.2295 223° Southwest  Level Estimated
Wed 03:13:00 AM 26.2764 116.1597 223° Southwest  Level Estimated
Wed 03:14:00 AM 26.2084 116.0899 223° Southwest  Level Estimated
Wed 03:15:00 AM 26.1403 116.0202 223° Southwest  Level Estimated
Wed 03:16:00 AM 26.0721 115.9506 223° Southwest  Level Estimated
Wed 03:17:00 AM 26.0039 115.8811 223° Southwest  Level Estimated
Wed 03:18:00 AM 25.9357 115.8116 222° Southwest  Level Estimated
Wed 03:19:00 AM 25.8675 115.7423 222° Southwest  Level Estimated
Wed 03:20:00 AM 25.7992 115.6730 222° Southwest  Level Estimated
Wed 03:21:00 AM 25.7309 115.6038 222° Southwest  Level Estimated
Wed 03:22:00 AM 25.6625 115.5346 222° Southwest  Level Estimated
Wed 03:23:00 AM 25.5942 115.4656 222° Southwest  Level Estimated
Wed 03:24:00 AM 25.5257 115.3966 222° Southwest  Level Estimated
Wed 03:25:00 AM 25.4573 115.3277 222° Southwest  Level Estimated
Wed 03:26:00 AM 25.3888 115.2589 222° Southwest  Level Estimated
Wed 03:27:00 AM 25.3203 115.1902 222° Southwest  Level Estimated
Wed 03:28:00 AM 25.2518 115.1215 222° Southwest  Level Estimated
Wed 03:29:00 AM 25.1832 115.0530 222° Southwest  Level Estimated
Wed 03:30:00 AM 25.1146 114.9845 222° Southwest  Level Estimated
Wed 03:31:00 AM 25.0460 114.9160 222° Southwest  Level Estimated
Wed 03:32:00 AM 24.9773 114.8477 222° Southwest  Level Estimated
Wed 03:33:00 AM 24.9086 114.7794 222° Southwest  Level Estimated
Wed 03:34:00 AM 24.8399 114.7112 222° Southwest  Level Estimated
Wed 03:35:00 AM 24.7711 114.6431 222° Southwest  Level Estimated
Wed 03:36:00 AM 24.7024 114.5751 222° Southwest  Level Estimated
Wed 03:37:00 AM 24.6335 114.5071 222° Southwest  Level Estimated
Wed 03:38:00 AM 24.5647 114.4392 222° Southwest  Level Estimated
Wed 03:39:00 AM 24.4958 114.3714 222° Southwest  Level Estimated
Wed 03:40:00 AM 24.4269 114.3036 222° Southwest  Level Estimated
Wed 03:41:00 AM 24.3580 114.2360 222° Southwest  Level Estimated
Wed 03:42:00 AM 24.2890 114.1684 222° Southwest  Level Estimated
Wed 03:43:00 AM 24.2200 114.1008 222° Southwest  Level Estimated
Wed 03:44:00 AM 24.1510 114.0334 222° Southwest  Level Estimated
Wed 03:45:00 AM 24.0819 113.9660 222° Southwest  Level Estimated
Wed 03:46:00 AM 24.0128 113.8987 222° Southwest  Level Estimated
Wed 03:47:00 AM 23.9437 113.8315 222° Southwest  Level Estimated
Wed 03:48:00 AM 23.8745 113.7643 222° Southwest  Level Estimated
Wed 03:49:00 AM 23.8054 113.6972 222° Southwest  Level Estimated
Wed 03:50:00 AM 23.7362 113.6302 222° Southwest  Level Estimated
Wed 03:51:00 AM 23.6669 113.5632 222° Southwest  Level Estimated
Wed 03:52:00 AM 23.5977 113.4964 222° Southwest  Level Estimated
Wed 03:53:00 AM 23.5284 113.4296 221° Southwest  Level Estimated
Wed 03:54:00 AM 23.4591 113.3628 221° Southwest  Level Estimated
Wed 03:55:00 AM 23.3924 113.2988 221° Southwest  Level Estimated
Wed 03:56:00 AM 23.3924 113.2988 North  Level Estimated
Wed 03:57:00 AM 23.3924 113.2988 North  Level Estimated
Wed 03:58:00 AM 23.3924 113.2988 North  Level Estimated
Wed 03:59:00 AM 23.3924 113.2988 North  Level Estimated
Wed 04:00:00 AM 23.3924 113.2988 North  Level Estimated
Wed 04:01:00 AM 23.3924 113.2988 North  Level Estimated
Wed 04:02:00 AM 23.3924 113.2988 North  Level Estimated
Wed 04:03:00 AM 23.3924 113.2988 North  Level Estimated
Wed 04:04:00 AM 23.3924 113.2988 North  Level Estimated
Wed 04:05:00 AM 23.3924 113.2988 North  Level Estimated

Login

Don't have an account? Register now (free) for customized features, flight alerts, and more!